Time;durP1;ratioP1;P1;durP2;ratioP2;P2;SDS_P1;SDS_P2;PMS_P1;PMS_P2;Temp;Humidity;BMP_temperature;BMP_pressure;BME280_temperature;BME280_humidity;BME280_pressure;Samples;Min_cycle;Max_cycle;Signal;HPM_P1;HPM_P2
2021/09/18 00:01:20;;;;;;;9.47;7.40;;;;;;;22.73;65.46;97966.56;5030393;28;20668;-64
2021/09/18 00:03:47;;;;;;;10.97;7.40;;;;;;;22.82;64.80;97976.63;5022364;28;20212;-64
2021/09/18 00:06:14;;;;;;;10.93;7.90;;;;;;;22.53;65.54;97970.19;5024770;28;20231;-64
2021/09/18 00:08:41;;;;;;;15.73;8.60;;;;;;;22.53;66.37;97972.09;5022989;28;20213;-64
2021/09/18 00:11:10;;;;;;;14.07;7.67;;;;;;;22.74;64.80;97979.91;5030957;28;20225;-64
2021/09/18 00:13:38;;;;;;;10.20;7.77;;;;;;;22.66;65.34;97976.94;5024595;28;20208;-64
2021/09/18 00:16:06;;;;;;;13.77;8.57;;;;;;;22.59;65.21;97979.97;5031797;28;20243;-63
2021/09/18 00:18:33;;;;;;;11.10;7.63;;;;;;;22.17;67.57;97978.69;5030279;28;20214;-64
2021/09/18 00:21:02;;;;;;;13.40;8.30;;;;;;;21.90;69.75;97972.78;5025673;28;20948;-64
2021/09/18 00:23:30;;;;;;;10.00;7.47;;;;;;;22.34;67.51;97969.13;5031115;28;20667;-64
2021/09/18 00:25:57;;;;;;;12.93;8.13;;;;;;;22.33;66.92;97972.94;5029639;28;20275;-64
2021/09/18 00:28:25;;;;;;;10.83;8.00;;;;;;;22.67;65.96;97976.69;5024536;28;20585;-64
2021/09/18 00:30:53;;;;;;;14.10;7.93;;;;;;;22.52;66.73;97971.28;5026910;28;20231;-64
2021/09/18 00:33:20;;;;;;;9.77;7.70;;;;;;;22.68;65.87;97981.03;5022460;28;20730;-64
2021/09/18 00:35:47;;;;;;;12.93;8.07;;;;;;;22.74;65.01;97981.78;5031756;28;20606;-64
2021/09/18 00:38:15;;;;;;;14.00;7.90;;;;;;;22.73;65.18;97974.72;5031697;28;20210;-64
2021/09/18 00:40:42;;;;;;;9.47;7.63;;;;;;;22.47;65.44;97978.66;5025434;28;20202;-64
2021/09/18 00:43:11;;;;;;;10.17;8.23;;;;;;;22.67;65.29;97978.56;5021986;28;20227;-64
2021/09/18 00:45:39;;;;;;;11.97;8.20;;;;;;;22.46;65.88;97977.84;5024444;28;20226;-64
2021/09/18 00:48:07;;;;;;;12.27;8.63;;;;;;;22.37;66.26;97978.66;5016601;28;20214;-64
2021/09/18 00:50:34;;;;;;;13.67;7.80;;;;;;;22.55;65.82;97976.16;5019834;28;20240;-64
2021/09/18 00:53:01;;;;;;;10.90;8.20;;;;;;;22.36;66.46;97971.59;5018703;28;20684;-64
2021/09/18 00:55:29;;;;;;;14.47;8.37;;;;;;;22.20;67.65;97970.81;5029020;28;20230;-64
2021/09/18 00:57:56;;;;;;;13.37;7.93;;;;;;;22.14;68.26;97971.91;5026342;28;20594;-64
2021/09/18 01:00:23;;;;;;;11.90;8.70;;;;;;;22.04;68.15;97977.38;5027777;28;20407;-64
2021/09/18 01:02:52;;;;;;;12.90;9.10;;;;;;;22.04;68.34;97969.22;5022377;28;20206;-63
2021/09/18 01:05:19;;;;;;;12.50;8.90;;;;;;;22.42;66.61;97970.47;5031208;28;20238;-64
2021/09/18 01:07:47;;;;;;;12.23;8.60;;;;;;;22.09;67.76;97979.28;5032073;28;20228;-64
2021/09/18 01:10:14;;;;;;;12.03;9.07;;;;;;;22.52;65.42;97974.00;5030533;28;20226;-64
2021/09/18 01:13:04;;;;;;;12.83;8.90;;;;;;;22.51;65.51;97980.56;5024122;28;20224;-63
2021/09/18 01:15:33;;;;;;;13.93;9.00;;;;;;;22.50;65.15;97970.75;5024613;28;20238;-64
2021/09/18 01:18:02;;;;;;;14.43;8.97;;;;;;;22.34;65.64;97971.06;5029933;28;20200;-64
2021/09/18 01:20:30;;;;;;;15.10;9.00;;;;;;;21.62;69.48;97970.56;5022275;28;20862;-63
2021/09/18 01:22:59;;;;;;;12.87;8.23;;;;;;;22.22;67.03;97976.78;5025797;28;20583;-64
2021/09/18 01:25:29;;;;;;;11.03;8.60;;;;;;;21.82;68.27;97974.13;5030762;28;20226;-64
2021/09/18 01:27:56;;;;;;;13.57;8.40;;;;;;;21.79;68.04;97974.69;5030508;28;20213;-64
2021/09/18 01:30:27;;;;;;;14.37;8.57;;;;;;;21.91;67.57;97964.34;5024177;28;20223;-64
2021/09/18 01:32:55;;;;;;;12.10;8.67;;;;;;;22.08;67.14;97962.13;5023129;28;20234;-64
2021/09/18 01:35:22;;;;;;;11.57;8.07;;;;;;;21.98;66.77;97959.44;5021717;28;20250;-64
2021/09/18 01:37:50;;;;;;;12.77;8.20;;;;;;;21.90;67.62;97959.19;5029146;28;20588;-64
2021/09/18 01:40:21;;;;;;;10.47;8.27;;;;;;;21.94;66.93;97960.28;5029975;28;20214;-64
2021/09/18 01:42:50;;;;;;;10.97;7.90;;;;;;;22.08;67.10;97962.13;5030362;28;20213;-64
2021/09/18 01:45:18;;;;;;;11.53;7.77;;;;;;;22.16;66.15;97964.31;5027985;28;20692;-64
2021/09/18 01:47:46;;;;;;;9.03;7.23;;;;;;;21.62;68.51;97967.84;5024041;28;20210;-64
2021/09/18 01:50:25;;;;;;;11.00;7.80;;;;;;;21.28;70.78;97955.91;5027426;28;20241;-64
2021/09/18 01:52:53;;;;;;;10.83;8.07;;;;;;;21.77;68.92;97955.13;5031615;28;20222;-63
2021/09/18 01:55:21;;;;;;;10.13;7.93;;;;;;;21.90;68.13;97956.47;5029982;28;20228;-64
2021/09/18 01:57:51;;;;;;;10.70;7.10;;;;;;;21.94;66.90;97960.28;5029898;28;20211;-64
2021/09/18 02:00:19;;;;;;;10.37;7.57;;;;;;;21.65;69.48;97949.13;5034193;28;20216;-64
2021/09/18 02:02:47;;;;;;;9.33;6.97;;;;;;;21.93;67.77;97959.44;5035069;28;20671;-64
2021/09/18 02:05:16;;;;;;;11.53;7.50;;;;;;;21.70;67.99;97960.03;5026773;28;20232;-64
2021/09/18 02:07:44;;;;;;;10.27;7.70;;;;;;;21.37;71.37;97952.38;5029105;28;20206;-63
2021/09/18 02:10:13;;;;;;;10.13;7.47;;;;;;;21.62;70.44;97944.25;5033375;28;20612;-64
2021/09/18 02:12:41;;;;;;;13.63;8.40;;;;;;;21.92;68.66;97954.28;5037081;28;20207;-63
2021/09/18 02:15:11;;;;;;;12.33;8.00;;;;;;;21.87;68.06;97944.25;5037789;28;20228;-64
2021/09/18 02:17:38;;;;;;;11.43;7.87;;;;;;;22.08;67.31;97951.25;5025595;28;20214;-64
2021/09/18 02:20:07;;;;;;;11.50;7.87;;;;;;;22.05;66.94;97949.09;5031658;28;20216;-64
2021/09/18 02:22:34;;;;;;;9.97;7.23;;;;;;;21.98;66.28;97950.47;5032932;28;20565;-64
2021/09/18 02:25:02;;;;;;;10.93;7.77;;;;;;;22.08;66.23;97950.44;5029499;28;20237;-64
2021/09/18 02:27:29;;;;;;;9.50;6.93;;;;;;;22.01;66.97;97953.47;5023999;28;20569;-64
2021/09/18 02:29:56;;;;;;;9.77;7.10;;;;;;;22.02;66.56;97946.09;5035963;28;20229;-64
2021/09/18 02:32:25;;;;;;;10.40;7.03;;;;;;;21.96;66.60;97952.66;5036628;28;20209;-64
2021/09/18 02:34:53;;;;;;;10.73;6.90;;;;;;;21.88;67.17;97956.75;5028869;28;20281;-64
2021/09/18 02:37:20;;;;;;;9.00;6.63;;;;;;;21.16;70.98;97960.78;5025122;28;20215;-64
2021/09/18 02:39:48;;;;;;;11.07;6.90;;;;;;;21.20;71.70;97956.44;5035078;28;20262;-64
2021/09/18 02:42:15;;;;;;;10.37;7.07;;;;;;;21.17;72.59;97949.66;5024652;28;20209;-64
2021/09/18 02:44:42;;;;;;;10.50;7.23;;;;;;;21.31;71.71;97953.47;5021245;28;20700;-64
2021/09/18 02:47:09;;;;;;;11.33;7.53;;;;;;;21.64;70.18;97949.41;5034635;28;20669;-64
2021/09/18 02:49:38;;;;;;;12.37;8.07;;;;;;;21.50;70.15;97954.56;5037036;28;20215;-64
2021/09/18 02:52:05;;;;;;;10.27;7.23;;;;;;;21.90;68.99;97949.16;5036709;28;20229;-64
2021/09/18 02:54:33;;;;;;;9.90;7.13;;;;;;;21.84;68.62;97952.13;5035560;28;20551;-64
2021/09/18 02:57:00;;;;;;;11.57;8.37;;;;;;;21.62;68.61;97951.56;5036674;28;20753;-64
2021/09/18 02:59:27;;;;;;;12.13;8.10;;;;;;;21.11;72.65;97944.47;5036487;28;20217;-64
2021/09/18 03:01:55;;;;;;;13.23;8.63;;;;;;;21.10;72.01;97946.41;5021240;28;20286;-64
2021/09/18 03:04:22;;;;;;;11.20;8.17;;;;;;;20.96;73.15;97942.56;5022538;28;20218;-64
2021/09/18 03:06:50;;;;;;;15.10;8.80;;;;;;;21.25;72.35;97940.16;5022062;28;20210;-63
2021/09/18 03:09:18;;;;;;;13.03;9.47;;;;;;;21.45;71.22;97935.56;5025816;28;20221;-63
2021/09/18 03:11:45;;;;;;;14.40;9.00;;;;;;;21.68;69.83;97939.63;5032544;28;20237;-63
2021/09/18 03:14:12;;;;;;;10.87;8.63;;;;;;;21.67;68.80;97941.53;5025254;28;20211;-63
2021/09/18 03:16:39;;;;;;;14.37;9.13;;;;;;;21.76;68.19;97931.78;5028830;28;20573;-63
2021/09/18 03:19:07;;;;;;;14.57;9.37;;;;;;;21.09;72.19;97935.81;5033878;28;20706;-61
2021/09/18 03:21:34;;;;;;;14.10;8.53;;;;;;;21.31;71.28;97931.75;5033081;28;20212;-63
2021/09/18 03:24:03;;;;;;;17.00;9.47;;;;;;;21.57;70.68;97927.94;5030392;28;20588;-63
2021/09/18 03:26:30;;;;;;;12.77;8.73;;;;;;;21.81;67.87;97929.03;5032904;28;20236;-63
2021/09/18 03:28:57;;;;;;;12.77;9.20;;;;;;;21.75;67.82;97932.88;5028600;28;20211;-63
2021/09/18 03:31:25;;;;;;;13.23;8.27;;;;;;;21.81;66.99;97931.75;5026975;28;20220;-63
2021/09/18 03:33:52;;;;;;;13.53;9.23;;;;;;;21.77;66.97;97936.09;5031796;28;20203;-63
2021/09/18 03:36:19;;;;;;;11.50;8.57;;;;;;;21.68;67.42;97939.63;5031195;28;20247;-63
2021/09/18 03:38:47;;;;;;;13.03;8.97;;;;;;;21.62;67.49;97927.13;5023727;28;20662;-63
2021/09/18 03:41:15;;;;;;;12.87;7.80;;;;;;;21.65;67.52;97935.56;5028365;28;20693;-63
2021/09/18 03:43:42;;;;;;;13.07;8.43;;;;;;;20.67;71.55;97932.44;5024735;28;20230;-63
2021/09/18 03:46:10;;;;;;;11.93;8.07;;;;;;;21.24;70.35;97931.19;5023294;28;20228;-63
2021/09/18 03:48:37;;;;;;;11.37;8.00;;;;;;;21.04;71.05;97938.50;5033396;28;20707;-63
2021/09/18 03:51:04;;;;;;;16.60;9.33;;;;;;;20.88;72.23;97934.09;5026780;28;20224;-63
2021/09/18 03:53:32;;;;;;;14.07;9.17;;;;;;;21.05;71.24;97932.81;5025249;28;20209;-63
2021/09/18 03:56:00;;;;;;;13.43;9.60;;;;;;;20.85;70.74;97940.88;5021895;28;20233;-63
2021/09/18 03:58:28;;;;;;;14.57;9.67;;;;;;;21.09;71.36;97931.19;5020646;28;20217;-63
2021/09/18 04:00:56;;;;;;;16.87;10.43;;;;;;;20.67;73.33;97935.13;5028171;28;20200;-63
2021/09/18 04:03:23;;;;;;;13.80;9.23;;;;;;;20.73;72.79;97931.34;5031439;28;20219;-63
2021/09/18 04:05:50;;;;;;;17.13;10.40;;;;;;;21.22;70.98;97938.78;5024656;28;20226;-63
2021/09/18 04:08:17;;;;;;;15.47;9.90;;;;;;;21.49;68.58;97944.78;5032974;28;20208;-63
2021/09/18 04:10:46;;;;;;;15.40;9.23;;;;;;;21.35;68.92;97937.44;5028786;28;20241;-65
2021/09/18 04:13:13;;;;;;;16.23;9.90;;;;;;;21.57;67.27;97949.69;5026276;28;20267;-63
2021/09/18 04:15:41;;;;;;;16.87;9.70;;;;;;;21.43;67.50;97948.56;5030057;28;20239;-63
2021/09/18 04:18:09;;;;;;;14.80;9.53;;;;;;;21.31;68.74;97945.31;5025770;28;20212;-63
2021/09/18 04:20:36;;;;;;;19.10;9.50;;;;;;;21.39;67.78;97941.25;5031718;28;20208;-63
2021/09/18 04:23:03;;;;;;;16.03;9.80;;;;;;;21.41;68.08;97941.78;5029372;28;20230;-63
2021/09/18 04:25:31;;;;;;;17.67;9.70;;;;;;;21.44;66.92;97952.91;5021125;28;20706;-63
2021/09/18 04:27:58;;;;;;;15.33;10.03;;;;;;;21.30;67.21;97951.03;5022448;28;20209;-63
2021/09/18 04:30:25;;;;;;;14.17;9.47;;;;;;;21.33;67.69;97948.56;5030984;28;20210;-63
2021/09/18 04:32:54;;;;;;;16.33;9.67;;;;;;;21.43;66.68;97950.50;5028251;28;20209;-63
2021/09/18 04:37:50;;;;;;;17.40;9.87;;;;;;;20.62;71.34;97945.97;5007933;28;20219;-67
2021/09/18 04:40:18;;;;;;;18.40;9.43;;;;;;;21.09;68.54;97949.38;5011161;28;20291;-67
2021/09/18 04:42:45;;;;;;;20.80;11.10;;;;;;;20.47;72.85;97951.34;5011111;28;20210;-68
2021/09/18 04:45:13;;;;;;;19.60;11.37;;;;;;;20.67;71.91;97957.63;5012372;28;20213;-66
2021/09/18 04:47:40;;;;;;;19.37;10.90;;;;;;;20.56;72.57;97950.53;5011639;28;20222;-68
2021/09/18 04:50:10;;;;;;;17.70;10.10;;;;;;;20.84;70.86;97965.56;5012114;28;20204;-67
2021/09/18 04:52:37;;;;;;;15.57;10.97;;;;;;;21.16;69.02;97964.31;5016020;28;20583;-66
2021/09/18 04:55:05;;;;;;;20.17;10.87;;;;;;;21.20;69.03;97961.88;5011379;28;20669;-66
2021/09/18 04:57:32;;;;;;;19.50;11.40;;;;;;;21.07;68.20;97970.53;5011915;28;20238;-66
2021/09/18 04:59:59;;;;;;;20.33;11.07;;;;;;;21.07;69.30;97965.13;5011871;28;20204;-66
2021/09/18 05:02:27;;;;;;;18.30;10.37;;;;;;;21.00;69.93;97973.50;5011934;28;20217;-66
2021/09/18 05:04:54;;;;;;;18.10;10.77;;;;;;;21.25;68.65;97972.72;5010736;28;20680;-66
2021/09/18 05:07:23;;;;;;;16.03;10.87;;;;;;;21.37;67.32;97981.41;5009317;28;20227;-66
2021/09/18 05:09:50;;;;;;;21.73;10.63;;;;;;;20.92;70.38;97970.50;5012978;28;20308;-66
2021/09/18 05:12:17;;;;;;;16.23;10.80;;;;;;;21.27;68.13;97981.41;5007424;28;20229;-66
2021/09/18 05:14:45;;;;;;;16.30;10.87;;;;;;;21.41;67.73;97985.25;5011721;28;20221;-66
2021/09/18 05:17:12;;;;;;;17.50;10.57;;;;;;;21.45;66.93;97979.00;5011788;28;20232;-66
2021/09/18 05:19:39;;;;;;;15.70;10.20;;;;;;;21.43;66.55;97983.88;5010528;28;20209;-66
2021/09/18 05:22:06;;;;;;;16.47;9.77;;;;;;;21.55;66.54;97992.59;5017280;28;20211;-66
2021/09/18 05:24:35;;;;;;;17.00;10.50;;;;;;;21.66;65.96;97988.78;5008631;28;20218;-66
2021/09/18 05:27:02;;;;;;;16.00;9.53;;;;;;;21.59;65.56;97996.38;5011623;28;20727;-66
2021/09/18 05:29:30;;;;;;;13.83;9.53;;;;;;;21.47;65.89;97986.88;5011918;28;20208;-67
2021/09/18 05:31:57;;;;;;;17.07;9.57;;;;;;;21.38;66.92;97992.03;5011167;28;20226;-66
2021/09/18 05:34:24;;;;;;;15.63;9.87;;;;;;;21.37;66.72;97992.28;5011041;28;20211;-66
2021/09/18 05:36:52;;;;;;;16.70;10.70;;;;;;;21.16;68.77;97990.63;5009221;28;20708;-66
2021/09/18 05:39:19;;;;;;;16.47;10.33;;;;;;;20.87;70.02;97984.81;5007499;28;20667;-67
2021/09/18 05:41:47;;;;;;;20.27;10.20;;;;;;;21.31;68.73;97987.94;5011246;28;20196;-69
2021/09/18 05:44:15;;;;;;;17.70;10.17;;;;;;;21.51;67.89;97996.94;5012145;28;20207;-77
2021/09/18 05:46:42;;;;;;;25.17;13.13;;;;;;;21.52;67.70;97995.00;5011797;28;20606;-72
2021/09/18 05:49:10;;;;;;;17.00;10.63;;;;;;;21.71;67.02;97996.97;5011032;28;20211;-69
2021/09/18 05:51:37;;;;;;;23.67;11.60;;;;;;;21.37;68.82;97995.00;5010167;28;20233;-76
2021/09/18 05:54:04;;;;;;;17.53;10.40;;;;;;;21.94;66.83;97992.88;5012360;28;20212;-70
2021/09/18 05:56:31;;;;;;;18.17;11.13;;;;;;;22.10;66.33;97991.78;5013932;28;20230;-75
2021/09/18 05:59:00;;;;;;;18.33;11.80;;;;;;;22.27;65.84;97986.84;5012076;28;20205;-76
2021/09/18 06:01:27;;;;;;;17.07;10.87;;;;;;;22.31;65.89;97996.06;5012391;28;20197;-78
2021/09/18 06:03:55;;;;;;;18.90;10.83;;;;;;;22.35;65.71;97995.22;5010967;28;20207;-77
2021/09/18 06:06:22;;;;;;;16.03;10.57;;;;;;;22.35;66.00;97995.22;5013131;28;20248;-80
2021/09/18 06:08:49;;;;;;;17.53;10.80;;;;;;;22.46;66.07;97990.63;5009946;28;20206;-77
2021/09/18 06:11:17;;;;;;;16.53;10.20;;;;;;;22.58;65.73;98004.72;5001063;28;20224;-73
2021/09/18 06:13:44;;;;;;;19.10;11.47;;;;;;;22.66;65.88;98001.44;5012136;28;20297;-70
2021/09/18 06:16:13;;;;;;;19.10;10.93;;;;;;;22.52;65.17;98012.09;5010122;28;20229;-70
2021/09/18 06:18:40;;;;;;;23.23;11.47;;;;;;;22.78;65.78;98010.09;5014795;28;20218;-69
2021/09/18 06:21:07;;;;;;;18.43;10.93;;;;;;;22.78;65.58;98008.19;5009447;28;20666;-68
2021/09/18 06:23:37;;;;;;;17.27;11.20;;;;;;;23.09;65.20;98008.84;5008754;28;20568;-69
2021/09/18 06:26:05;;;;;;;20.67;11.80;;;;;;;23.19;64.62;98014.25;5009435;28;20313;-69
2021/09/18 06:28:32;;;;;;;16.40;11.07;;;;;;;23.38;64.68;98009.81;5010213;28;20361;-67
2021/09/18 06:30:59;;;;;;;18.20;11.07;;;;;;;23.43;64.24;98009.75;5013240;28;20199;-67
2021/09/18 06:33:28;;;;;;;15.97;10.97;;;;;;;23.55;64.52;98005.59;5010546;28;20203;-77
2021/09/18 06:35:56;;;;;;;19.93;11.10;;;;;;;23.63;62.84;98013.19;5010140;28;20235;-70
2021/09/18 06:38:23;;;;;;;14.33;10.63;;;;;;;23.72;61.44;98019.63;5014241;28;20235;-69
2021/09/18 06:40:51;;;;;;;14.47;10.10;;;;;;;23.55;63.07;98012.94;5012801;28;20215;-71
2021/09/18 06:43:19;;;;;;;15.67;10.40;;;;;;;23.91;61.93;98027.97;5014002;28;20217;-69
2021/09/18 06:45:46;;;;;;;18.27;10.43;;;;;;;23.58;60.87;98035.00;5016767;28;20237;-73
2021/09/18 06:48:13;;;;;;;15.10;10.03;;;;;;;23.20;62.15;98019.44;5018131;28;20660;-73
2021/09/18 06:50:42;;;;;;;13.77;9.70;;;;;;;23.90;60.48;98018.16;5014116;28;20216;-72
2021/09/18 06:53:10;;;;;;;15.53;10.00;;;;;;;22.69;61.04;98028.06;5015334;28;20235;-78
2021/09/18 06:55:38;;;;;;;13.90;8.90;;;;;;;23.56;62.06;98017.31;5016764;28;20210;-73
2021/09/18 06:58:06;;;;;;;12.73;8.93;;;;;;;24.19;58.81;98018.97;5015351;28;20212;-78
2021/09/18 07:00:34;;;;;;;12.90;8.53;;;;;;;24.39;58.83;98016.06;5017300;28;20634;-73
2021/09/18 07:03:01;;;;;;;11.43;8.33;;;;;;;24.58;58.30;98025.13;5013670;28;20644;-74
2021/09/18 07:05:28;;;;;;;10.50;8.27;;;;;;;24.29;56.99;98025.16;5014760;28;20215;-76
2021/09/18 07:07:58;;;;;;;13.37;8.50;;;;;;;24.73;58.42;98022.25;5012625;28;20209;-71
2021/09/18 07:10:25;;;;;;;13.80;8.33;;;;;;;23.34;59.83;98025.91;5013310;28;20527;-72
2021/09/18 07:12:52;;;;;;;11.90;7.97;;;;;;;24.66;57.13;98030.78;5013976;28;20240;-72
2021/09/18 07:15:20;;;;;;;9.93;7.60;;;;;;;24.31;57.15;98030.31;5019539;28;20200;-72
2021/09/18 07:17:47;;;;;;;15.53;8.27;;;;;;;25.02;54.96;98031.97;5006428;28;20260;-71
2021/09/18 07:20:15;;;;;;;11.43;8.13;;;;;;;24.97;54.13;98029.31;5008493;28;20663;-70
2021/09/18 07:22:42;;;;;;;12.83;7.43;;;;;;;25.36;54.17;98037.28;5010919;28;20202;-73
2021/09/18 07:25:12;;;;;;;13.50;8.17;;;;;;;25.81;53.90;98040.19;5013994;28;20203;-69
2021/09/18 07:27:39;;;;;;;9.40;7.40;;;;;;;25.51;52.88;98035.16;5011447;28;20234;-70
2021/09/18 07:30:08;;;;;;;10.57;7.03;;;;;;;25.82;52.35;98044.53;5013937;28;20211;-71
2021/09/18 07:32:35;;;;;;;11.67;7.40;;;;;;;26.04;52.07;98047.47;5011857;28;20223;-69
2021/09/18 07:35:05;;;;;;;9.93;7.07;;;;;;;26.32;52.17;98045.63;5013416;28;20206;-68
2021/09/18 07:37:34;;;;;;;8.33;6.13;;;;;;;26.44;52.08;98048.69;5010739;28;20707;-69
2021/09/18 07:40:01;;;;;;;9.10;6.80;;;;;;;26.23;50.55;98055.63;5011881;28;20232;-70
2021/09/18 07:42:30;;;;;;;12.67;7.37;;;;;;;26.47;50.44;98056.31;5015993;28;20207;-70
2021/09/18 07:44:58;;;;;;;9.03;7.17;;;;;;;25.44;52.73;98050.31;5005260;28;20207;-69
2021/09/18 07:47:25;;;;;;;9.80;7.30;;;;;;;26.68;50.36;98047.44;5010496;28;20227;-67
2021/09/18 07:49:52;;;;;;;9.80;7.10;;;;;;;26.80;49.83;98052.44;5002737;28;20218;-69
2021/09/18 07:52:19;;;;;;;11.23;6.97;;;;;;;25.83;51.07;98059.00;5012895;28;20238;-70
2021/09/18 07:54:47;;;;;;;9.70;7.17;;;;;;;25.14;58.09;98035.09;5008690;28;20212;-70
2021/09/18 07:57:14;;;;;;;8.07;6.67;;;;;;;26.47;51.83;98043.44;5013920;28;20242;-71
2021/09/18 07:59:43;;;;;;;11.20;6.53;;;;;;;26.78;51.98;98043.69;5002533;28;20575;-71
2021/09/18 08:02:10;;;;;;;10.00;6.90;;;;;;;27.25;50.06;98037.81;5007531;28;20205;-69
2021/09/18 08:04:37;;;;;;;13.10;6.90;;;;;;;26.99;49.30;98048.47;5011419;28;20254;-71
2021/09/18 08:07:05;;;;;;;7.80;5.83;;;;;;;26.02;53.82;98043.41;5011486;28;20228;-67
2021/09/18 08:09:32;;;;;;;7.57;5.87;;;;;;;24.31;56.85;98039.31;4999727;28;20205;-68
2021/09/18 08:11:59;;;;;;;7.97;6.03;;;;;;;25.59;53.89;98041.88;5008757;28;20235;-67
2021/09/18 08:14:26;;;;;;;8.43;6.33;;;;;;;26.39;52.01;98046.03;5004710;28;20209;-69
2021/09/18 08:16:56;;;;;;;9.03;6.60;;;;;;;24.64;56.17;98046.66;5007415;28;20723;-68
2021/09/18 08:19:24;;;;;;;8.67;7.03;;;;;;;24.79;55.62;98049.22;5008883;28;20208;-71
2021/09/18 08:21:52;;;;;;;10.50;7.67;;;;;;;25.98;53.72;98045.94;5009752;28;20208;-73
2021/09/18 08:24:20;;;;;;;8.73;6.47;;;;;;;27.38;50.47;98050.69;5013654;28;20217;-73
2021/09/18 08:26:47;;;;;;;7.97;5.90;;;;;;;27.57;51.50;98049.41;5015169;28;20223;-80
2021/09/18 08:29:14;;;;;;;12.23;7.70;;;;;;;27.15;49.81;98051.69;5015144;28;20568;-76
2021/09/18 08:31:42;;;;;;;8.43;6.53;;;;;;;27.15;50.07;98051.69;5014736;28;20214;-76
2021/09/18 08:34:11;;;;;;;8.63;6.77;;;;;;;28.44;46.02;98058.03;5013023;28;20206;-74
2021/09/18 08:36:38;;;;;;;9.57;6.77;;;;;;;28.71;45.42;98058.66;5006340;28;20714;-75
2021/09/18 08:39:06;;;;;;;8.60;5.40;;;;;;;28.04;49.21;98050.81;5013359;28;20217;-74
2021/09/18 08:41:33;;;;;;;10.97;6.33;;;;;;;27.10;49.91;98057.28;5012740;28;20208;-76
2021/09/18 08:44:00;;;;;;;9.67;6.10;;;;;;;26.26;51.15;98058.59;5004885;28;20199;-75
2021/09/18 08:46:28;;;;;;;10.00;6.60;;;;;;;25.83;51.93;98054.34;5013158;28;20259;-76
2021/09/18 08:48:55;;;;;;;12.87;6.97;;;;;;;27.14;49.78;98050.88;5009411;28;20572;-75
2021/09/18 08:51:25;;;;;;;9.90;5.87;;;;;;;28.33;46.63;98064.88;5016243;28;20208;-78
2021/09/18 08:53:52;;;;;;;7.73;6.03;;;;;;;26.71;49.86;98066.00;5009899;28;20220;-77
2021/09/18 08:56:20;;;;;;;9.27;5.90;;;;;;;27.71;48.36;98058.41;5014648;28;20228;-76
2021/09/18 08:58:49;;;;;;;7.10;5.70;;;;;;;26.45;50.58;98055.81;5013536;28;20199;-76
2021/09/18 09:01:18;;;;;;;7.80;5.53;;;;;;;26.02;51.78;98051.63;5013659;28;20217;-78
2021/09/18 09:03:46;;;;;;;7.43;5.60;;;;;;;28.54;46.88;98060.53;5011569;28;20207;-76
2021/09/18 09:06:16;;;;;;;6.60;5.17;;;;;;;28.58;44.75;98072.50;5015026;28;20224;-75
2021/09/18 09:08:58;;;;;;;6.13;5.23;;;;;;;29.02;43.99;98067.72;4995745;28;20234;-76
2021/09/18 09:11:27;;;;;;;9.83;4.90;;;;;;;28.71;44.99;98069.66;5014376;28;20285;-74
2021/09/18 09:13:56;;;;;;;7.97;5.20;;;;;;;29.86;41.25;98077.31;5012302;28;20314;-73
2021/09/18 09:16:24;;;;;;;6.60;4.87;;;;;;;30.61;41.00;98074.78;5018408;28;20229;-76
2021/09/18 09:18:52;;;;;;;7.73;4.93;;;;;;;29.59;42.00;98063.84;5014840;28;20211;-76
2021/09/18 09:21:22;;;;;;;7.13;5.10;;;;;;;27.92;44.66;98059.59;5010668;28;20598;-72
2021/09/18 09:24:06;;;;;;;6.47;4.63;;;;;;;29.37;43.36;98060.38;5009131;28;20624;-70
2021/09/18 09:26:34;;;;;;;7.33;4.60;;;;;;;27.82;44.53;98065.31;5010049;28;20227;-75
2021/09/18 09:29:01;;;;;;;5.63;3.90;;;;;;;28.02;45.02;98058.53;5012962;28;20218;-76
2021/09/18 09:31:30;;;;;;;6.53;4.87;;;;;;;27.04;46.61;98055.75;5007428;28;20204;-74
2021/09/18 09:34:07;;;;;;;4.77;4.03;;;;;;;28.43;43.80;98050.94;5012454;28;20692;-76
2021/09/18 09:36:38;;;;;;;4.00;3.57;;;;;;;27.17;44.35;98060.44;5010856;28;20322;-73
2021/09/18 09:39:08;;;;;;;6.13;4.27;;;;;;;28.80;42.73;98047.72;5002593;28;20211;-71
2021/09/18 09:41:38;;;;;;;4.63;3.83;;;;;;;27.76;43.14;98050.06;5010194;28;20656;-70
2021/09/18 09:44:12;;;;;;;5.43;3.77;;;;;;;27.53;44.42;98047.59;5004240;28;20204;-68
2021/09/18 09:46:40;;;;;;;4.30;3.30;;;;;;;29.34;41.39;98044.53;5007204;28;20711;-70
2021/09/18 09:49:16;;;;;;;4.30;3.23;;;;;;;29.95;40.72;98049.78;5006661;28;20211;-71
2021/09/18 09:51:44;;;;;;;4.93;3.60;;;;;;;29.43;40.03;98048.91;5007702;28;20211;-70
2021/09/18 09:54:24;;;;;;;4.13;2.50;;;;;;;28.03;39.15;98060.16;4999779;28;20707;-70
2021/09/18 09:57:09;;;;;;;3.60;2.27;;;;;;;28.90;38.61;98059.25;5012788;28;20437;-69
2021/09/18 09:59:36;;;;;;;2.37;2.17;;;;;;;28.89;39.54;98057.59;4995294;28;20231;-70
2021/09/18 10:02:05;;;;;;;2.57;2.23;;;;;;;30.06;36.20;98064.81;5011549;28;20218;-70
2021/09/18 10:04:33;;;;;;;3.30;1.87;;;;;;;28.80;36.42;98072.44;5012017;28;20226;-70
2021/09/18 10:07:01;;;;;;;1.90;1.70;;;;;;;26.99;37.58;98075.84;5016577;28;20226;-69
2021/09/18 10:09:30;;;;;;;2.67;1.50;;;;;;;29.19;35.92;98073.25;5011475;28;20207;-70
2021/09/18 10:11:58;;;;;;;2.33;1.40;;;;;;;27.97;36.70;98072.38;5019220;28;20215;-70
2021/09/18 10:14:27;;;;;;;5.13;2.53;;;;;;;27.66;38.20;98060.47;5007176;28;20236;-71
2021/09/18 10:16:57;;;;;;;1.60;1.47;;;;;;;28.54;36.35;98053.06;5009097;28;20223;-69
2021/09/18 10:19:52;;;;;;;3.77;2.80;;;;;;;28.55;39.42;98041.00;5012231;28;20225;-69
2021/09/18 10:25:15;;;;;;;1.87;1.70;;;;;;;28.33;34.98;98060.19;5001858;28;20218;-69
2021/09/18 10:27:59;;;;;;;1.40;1.30;;;;;;;27.84;33.88;98074.06;5005458;28;20235;-70
2021/09/18 10:30:31;;;;;;;1.87;1.20;;;;;;;27.65;33.69;98072.53;5004819;28;20207;-70
2021/09/18 10:32:58;;;;;;;1.43;1.27;;;;;;;27.87;34.27;98067.13;4997800;28;20591;-70
2021/09/18 10:35:26;;;;;;;2.73;1.40;;;;;;;28.75;33.22;98061.59;5015008;28;20210;-70
2021/09/18 10:37:53;;;;;;;1.40;1.30;;;;;;;30.36;30.09;98072.13;5010729;28;20204;-70
2021/09/18 10:40:22;;;;;;;1.67;1.07;;;;;;;28.91;32.22;98071.84;5046033;23;20251;-81
2021/09/18 10:42:51;;;;;;;1.83;1.57;;;;;;;30.57;31.90;98059.25;5039721;28;20210;-81
2021/09/18 10:45:19;;;;;;;2.23;1.40;;;;;;;31.38;29.78;98064.31;5038903;28;20712;-80
2021/09/18 10:47:49;;;;;;;2.27;1.50;;;;;;;30.65;31.08;98063.94;5039084;28;20286;-79
2021/09/18 10:50:38;;;;;;;1.73;1.30;;;;;;;29.00;32.71;98055.41;5027756;28;20275;-82
2021/09/18 10:53:07;;;;;;;1.60;1.30;;;;;;;30.42;30.48;98063.34;5015561;28;20278;-82
2021/09/18 10:55:52;;;;;;;2.57;1.40;;;;;;;31.74;28.87;98058.25;5032970;28;20289;-79
2021/09/18 10:58:19;;;;;;;1.80;1.20;;;;;;;29.95;30.41;98058.03;5030714;28;20288;-80
2021/09/18 11:00:57;;;;;;;1.30;1.20;;;;;;;29.90;31.02;98063.72;5034411;28;20223;-82
2021/09/18 11:03:40;;;;;;;1.40;1.00;;;;;;;28.12;32.15;98061.84;5038350;28;20575;-82
2021/09/18 11:06:07;;;;;;;1.40;1.30;;;;;;;29.35;31.51;98060.69;5011323;28;20215;-80
2021/09/18 11:08:39;;;;;;;1.33;1.00;;;;;;;29.95;29.59;98064.34;5018845;28;20291;-82
2021/09/18 11:11:12;;;;;;;2.20;1.40;;;;;;;31.37;28.43;98061.88;5026497;28;20235;-79
2021/09/18 11:13:41;;;;;;;1.57;1.47;;;;;;;30.58;29.50;98052.59;5028720;28;20220;-79
2021/09/18 11:16:22;;;;;;;2.10;1.70;;;;;;;29.04;33.06;98046.22;5026874;28;20211;-81
2021/09/18 11:18:59;;;;;;;2.17;1.90;;;;;;;30.79;32.88;98037.00;5021346;28;20203;-81
2021/09/18 11:21:28;;;;;;;2.23;1.87;;;;;;;30.65;31.98;98039.94;5015429;28;20220;-79
2021/09/18 11:23:57;;;;;;;3.43;2.10;;;;;;;31.55;30.69;98035.78;5023560;28;20207;-74
2021/09/18 11:26:43;;;;;;;2.40;2.20;;;;;;;31.68;30.58;98038.28;5019235;28;20203;-78
2021/09/18 11:29:13;;;;;;;2.43;1.97;;;;;;;29.72;33.38;98038.13;5017582;28;20313;-78
2021/09/18 11:31:52;;;;;;;3.20;2.40;;;;;;;29.98;31.81;98041.69;5026988;28;20200;-77
2021/09/18 11:34:23;;;;;;;2.70;2.40;;;;;;;30.07;32.41;98041.66;5034967;28;20225;-75
2021/09/18 11:36:50;;;;;;;3.00;2.53;;;;;;;30.39;32.81;98036.47;5016140;28;20676;-76
2021/09/18 11:39:32;;;;;;;3.43;2.67;;;;;;;30.99;31.64;98033.50;5017551;28;20232;-76